Time;durP1;ratioP1;P1;durP2;ratioP2;P2;SDS_P1;SDS_P2;PMS_P1;PMS_P2;Temp;Humidity;BMP_temperature;BMP_pressure;BME280_temperature;BME280_humidity;BME280_pressure;Samples;Min_cycle;Max_cycle;Signal;HPM_P1;HPM_P2
2022/04/05 00:01:24;;;;;;;7.82;7.07;;;5.70;99.90;;;;;;6001132;23;20217;-73
2022/04/05 00:03:51;;;;;;;7.63;7.03;;;5.70;99.90;;;;;;6004183;23;20855;-73
2022/04/05 00:06:19;;;;;;;8.15;7.35;;;5.70;99.90;;;;;;5997375;23;20661;-73
2022/04/05 00:08:47;;;;;;;7.40;6.80;;;5.80;99.90;;;;;;6004599;23;20272;-74
2022/04/05 00:11:14;;;;;;;8.60;7.82;;;5.80;99.90;;;;;;6006832;23;20305;-73
2022/04/05 00:13:41;;;;;;;7.72;7.10;;;5.80;99.90;;;;;;6023091;23;20190;-73
2022/04/05 00:16:08;;;;;;;8.05;7.35;;;5.80;99.90;;;;;;6004436;23;20309;-73
2022/04/05 00:18:35;;;;;;;7.32;6.63;;;5.80;99.90;;;;;;6005022;23;20273;-73
2022/04/05 00:21:02;;;;;;;8.65;7.35;;;5.80;99.90;;;;;;6004348;23;20709;-74
2022/04/05 00:23:29;;;;;;;7.95;7.25;;;5.80;99.90;;;;;;6005175;23;20337;-73
2022/04/05 00:25:57;;;;;;;8.13;7.43;;;5.80;99.90;;;;;;6028257;23;20676;-73
2022/04/05 00:28:24;;;;;;;7.60;7.00;;;5.80;99.90;;;;;;6004541;23;20190;-73
2022/04/05 00:30:51;;;;;;;7.60;6.90;;;5.80;99.90;;;;;;6002931;23;20285;-74
2022/04/05 00:33:18;;;;;;;7.50;6.80;;;5.80;99.90;;;;;;6003691;23;20736;-73
2022/04/05 00:35:45;;;;;;;7.88;7.18;;;5.80;99.90;;;;;;6003590;23;20276;-73
2022/04/05 00:38:12;;;;;;;7.10;6.28;;;5.80;99.90;;;;;;6004633;23;20189;-73
2022/04/05 00:40:38;;;;;;;7.45;6.75;;;5.80;99.90;;;;;;6004798;23;20328;-73
2022/04/05 00:43:07;;;;;;;7.68;6.97;;;5.90;99.90;;;;;;6013557;23;20196;-74
2022/04/05 00:45:35;;;;;;;7.43;6.82;;;5.90;99.90;;;;;;6025024;23;20803;-73
2022/04/05 00:48:04;;;;;;;7.40;6.70;;;5.90;99.90;;;;;;5998286;23;20757;-73
2022/04/05 00:50:34;;;;;;;7.65;6.95;;;5.90;99.90;;;;;;6004924;23;20716;-73
2022/04/05 00:53:05;;;;;;;7.07;6.38;;;5.90;99.90;;;;;;6002262;23;20274;-73
2022/04/05 00:55:33;;;;;;;8.93;7.10;;;5.90;99.90;;;;;;6021493;23;20212;-73
2022/04/05 00:58:02;;;;;;;7.15;6.53;;;5.90;99.90;;;;;;6007733;23;20269;-74
2022/04/05 01:00:32;;;;;;;7.63;7.03;;;5.90;99.90;;;;;;6003860;23;20189;-73
2022/04/05 01:03:00;;;;;;;7.75;7.05;;;5.90;99.90;;;;;;6004964;23;20198;-73
2022/04/05 01:05:29;;;;;;;7.50;6.90;;;5.80;99.90;;;;;;5997602;23;20206;-73
2022/04/05 01:08:02;;;;;;;7.20;6.50;;;5.80;99.90;;;;;;6004953;23;21452;-73
2022/04/05 01:10:29;;;;;;;7.88;7.18;;;5.70;99.90;;;;;;6017398;23;20813;-73
2022/04/05 01:12:57;;;;;;;7.28;6.45;;;5.80;99.90;;;;;;6003745;23;20222;-74
2022/04/05 01:15:24;;;;;;;7.32;6.63;;;5.80;99.90;;;;;;6005776;23;20206;-73
2022/04/05 01:17:55;;;;;;;7.43;6.82;;;5.80;99.90;;;;;;6003282;23;20223;-73
2022/04/05 01:20:23;;;;;;;6.70;6.03;;;5.90;99.90;;;;;;6004108;23;20186;-74
2022/04/05 01:22:53;;;;;;;7.45;6.85;;;5.80;99.90;;;;;;6000632;23;20214;-74
2022/04/05 01:25:22;;;;;;;6.68;6.07;;;5.70;99.90;;;;;;5991143;23;20268;-73
2022/04/05 01:27:50;;;;;;;7.32;6.72;;;5.60;99.90;;;;;;6005596;23;20195;-73
2022/04/05 01:30:17;;;;;;;7.00;6.40;;;5.40;99.90;;;;;;6004596;23;20214;-73
2022/04/05 01:32:44;;;;;;;8.98;7.38;;;5.30;99.90;;;;;;6004792;23;20220;-73
2022/04/05 01:35:11;;;;;;;8.15;7.40;;;5.20;99.90;;;;;;6014387;23;20267;-73
2022/04/05 01:37:38;;;;;;;7.57;6.88;;;5.10;99.90;;;;;;6005779;23;20194;-73
2022/04/05 01:40:06;;;;;;;7.78;7.10;;;5.10;99.90;;;;;;6002990;23;20183;-73
2022/04/05 01:42:35;;;;;;;8.60;7.38;;;5.10;99.90;;;;;;6004183;23;20553;-73
2022/04/05 01:45:02;;;;;;;8.10;7.40;;;5.00;99.90;;;;;;6004185;23;20206;-73
2022/04/05 01:47:29;;;;;;;8.13;7.40;;;5.00;99.90;;;;;;6004094;23;20194;-73
2022/04/05 01:49:57;;;;;;;7.95;7.25;;;5.00;99.90;;;;;;6004870;23;20186;-73
2022/04/05 01:52:24;;;;;;;7.90;7.15;;;4.90;99.90;;;;;;6004272;23;20213;-73
2022/04/05 01:54:51;;;;;;;7.85;7.05;;;4.90;99.90;;;;;;6004234;23;20206;-73
2022/04/05 01:57:19;;;;;;;8.25;7.45;;;5.00;99.90;;;;;;6002735;23;20253;-73
2022/04/05 01:59:47;;;;;;;7.97;7.30;;;5.00;99.90;;;;;;6005101;23;20209;-73
2022/04/05 02:02:14;;;;;;;7.45;6.80;;;5.00;99.90;;;;;;6003838;23;20284;-73
2022/04/05 02:04:42;;;;;;;8.40;7.70;;;4.90;99.90;;;;;;6002140;23;20781;-73
2022/04/05 02:07:11;;;;;;;8.02;7.22;;;4.90;99.90;;;;;;6004061;23;20637;-73
2022/04/05 02:09:38;;;;;;;9.00;8.10;;;4.90;99.90;;;;;;6005055;23;20196;-74
2022/04/05 02:12:06;;;;;;;8.80;8.10;;;4.90;99.90;;;;;;6024598;23;20226;-73
2022/04/05 02:14:33;;;;;;;7.65;6.95;;;4.80;99.90;;;;;;6003060;23;20213;-73
2022/04/05 02:17:02;;;;;;;8.57;7.68;;;4.90;99.90;;;;;;6004354;23;20192;-73
2022/04/05 02:19:29;;;;;;;8.45;7.75;;;4.80;99.90;;;;;;6004365;23;20221;-74
2022/04/05 02:21:57;;;;;;;8.73;8.02;;;4.80;99.90;;;;;;5977190;24;20232;-74
2022/04/05 02:24:24;;;;;;;9.02;8.23;;;4.70;99.90;;;;;;5998854;23;20700;-74
2022/04/05 02:26:51;;;;;;;9.20;8.30;;;4.70;99.90;;;;;;6003759;23;20192;-74
2022/04/05 02:29:19;;;;;;;9.13;8.23;;;4.60;99.90;;;;;;6004663;23;20224;-74
2022/04/05 02:31:45;;;;;;;10.10;9.10;;;4.60;99.90;;;;;;6005772;23;20194;-74
2022/04/05 02:34:14;;;;;;;8.73;7.93;;;4.60;99.90;;;;;;6000890;23;20238;-74
2022/04/05 02:36:41;;;;;;;8.77;7.97;;;4.60;99.90;;;;;;6003241;23;20205;-75
2022/04/05 02:39:08;;;;;;;9.43;8.52;;;4.50;99.90;;;;;;6004681;23;20219;-72
2022/04/05 02:41:35;;;;;;;9.95;8.95;;;4.50;99.90;;;;;;6023122;23;20272;-72
2022/04/05 02:44:02;;;;;;;9.50;8.70;;;4.50;99.90;;;;;;6007968;23;20312;-73
2022/04/05 02:46:29;;;;;;;9.15;8.40;;;4.50;99.90;;;;;;6002617;23;20281;-72
2022/04/05 02:48:56;;;;;;;9.85;8.90;;;4.50;99.90;;;;;;6002986;23;20201;-73
2022/04/05 02:51:24;;;;;;;9.75;8.85;;;4.50;99.90;;;;;;6001618;23;20193;-75
2022/04/05 02:53:52;;;;;;;9.70;8.85;;;4.50;99.90;;;;;;6004961;23;20224;-74
2022/04/05 02:56:19;;;;;;;10.35;9.35;;;4.50;99.90;;;;;;6012315;23;20704;-73
2022/04/05 02:58:48;;;;;;;9.63;8.65;;;4.50;99.90;;;;;;6004657;23;20192;-73
2022/04/05 03:01:16;;;;;;;9.00;8.20;;;4.40;99.90;;;;;;6004378;23;20190;-73
2022/04/05 03:03:43;;;;;;;10.43;9.35;;;4.50;99.90;;;;;;6000969;23;20221;-73
2022/04/05 03:06:11;;;;;;;10.02;8.95;;;4.50;99.90;;;;;;6012164;22;20220;-74
2022/04/05 03:08:40;;;;;;;11.07;10.00;;;4.40;99.90;;;;;;6031374;23;20243;-75
2022/04/05 03:11:08;;;;;;;10.55;9.57;;;4.40;99.90;;;;;;6031183;23;20647;-74
2022/04/05 03:13:35;;;;;;;10.68;8.88;;;4.40;99.90;;;;;;6030276;23;20225;-74
2022/04/05 03:16:02;;;;;;;11.43;10.43;;;4.40;99.90;;;;;;6004726;23;20638;-75
2022/04/05 03:18:29;;;;;;;10.68;9.68;;;4.40;99.90;;;;;;6013602;23;20219;-75
2022/04/05 03:20:56;;;;;;;10.73;9.57;;;4.40;99.90;;;;;;6032005;23;20536;-75
2022/04/05 03:23:24;;;;;;;10.13;9.13;;;4.30;99.90;;;;;;6031374;23;20283;-75
2022/04/05 03:25:53;;;;;;;10.38;9.38;;;4.40;99.90;;;;;;6025014;23;20545;-74
2022/04/05 03:28:20;;;;;;;10.88;9.77;;;4.40;99.90;;;;;;6032615;23;20236;-75
2022/04/05 03:30:48;;;;;;;11.73;10.52;;;4.40;99.90;;;;;;6029204;23;20186;-75
2022/04/05 03:33:15;;;;;;;10.45;9.50;;;4.40;99.90;;;;;;6031195;23;20226;-78
2022/04/05 03:35:42;;;;;;;10.75;9.75;;;4.40;99.90;;;;;;6027566;23;20544;-75
2022/04/05 03:38:09;;;;;;;12.07;10.93;;;4.40;99.90;;;;;;6031054;23;20199;-75
2022/04/05 03:40:36;;;;;;;11.30;10.20;;;4.40;99.90;;;;;;6033672;23;20185;-75
2022/04/05 03:43:07;;;;;;;11.77;10.60;;;4.40;99.90;;;;;;6029409;23;20417;-76
2022/04/05 03:45:34;;;;;;;11.73;10.63;;;4.40;99.90;;;;;;6027886;23;20197;-75
2022/04/05 03:48:01;;;;;;;12.18;10.45;;;4.50;99.90;;;;;;6023317;23;20193;-75
2022/04/05 03:50:28;;;;;;;11.07;10.05;;;4.50;99.90;;;;;;6027848;23;20231;-75
2022/04/05 03:52:57;;;;;;;11.80;10.60;;;4.60;99.90;;;;;;6029922;23;20217;-76
2022/04/05 03:55:25;;;;;;;10.57;9.57;;;4.60;99.90;;;;;;6028459;23;20225;-75
2022/04/05 03:57:52;;;;;;;10.88;9.90;;;4.60;99.90;;;;;;6022529;23;20664;-75
2022/04/05 04:00:20;;;;;;;11.05;9.95;;;4.60;99.90;;;;;;6029217;23;20656;-76
2022/04/05 04:02:47;;;;;;;10.40;9.48;;;4.50;99.90;;;;;;6026719;23;20193;-76
2022/04/05 04:05:20;;;;;;;11.13;10.02;;;4.50;99.90;;;;;;6031390;23;20232;-76
2022/04/05 04:07:48;;;;;;;11.07;9.63;;;4.50;99.90;;;;;;6033917;23;20231;-75
2022/04/05 04:10:15;;;;;;;10.02;9.07;;;4.40;99.90;;;;;;6034275;23;20211;-75
2022/04/05 04:12:42;;;;;;;13.20;9.43;;;4.40;99.90;;;;;;6031863;23;20306;-76
2022/04/05 04:15:10;;;;;;;9.70;8.80;;;4.40;99.90;;;;;;6024044;23;20319;-76
2022/04/05 04:17:38;;;;;;;11.13;10.13;;;4.40;99.90;;;;;;6034347;23;20207;-76
2022/04/05 04:20:06;;;;;;;10.40;9.40;;;4.40;99.90;;;;;;6028789;23;20195;-77
2022/04/05 04:22:34;;;;;;;10.93;9.93;;;4.30;99.90;;;;;;6034267;23;20189;-75
2022/04/05 04:25:01;;;;;;;10.90;9.90;;;4.40;99.90;;;;;;6025961;23;20209;-75
2022/04/05 04:27:28;;;;;;;9.60;8.73;;;4.30;99.90;;;;;;6020030;23;20193;-76
2022/04/05 04:29:55;;;;;;;10.00;9.07;;;4.30;99.90;;;;;;6025291;23;20185;-76
2022/04/05 04:32:21;;;;;;;9.85;8.82;;;4.30;99.90;;;;;;6032539;23;20199;-76
2022/04/05 04:34:50;;;;;;;10.07;9.18;;;4.40;99.90;;;;;;6027716;23;20244;-75
2022/04/05 04:37:17;;;;;;;10.73;9.82;;;4.40;99.90;;;;;;6030022;23;20275;-76
2022/04/05 04:39:44;;;;;;;10.45;9.65;;;4.30;99.90;;;;;;6028323;23;20210;-76
2022/04/05 04:42:12;;;;;;;10.32;9.25;;;4.40;99.90;;;;;;6031360;23;20299;-77
2022/04/05 04:44:39;;;;;;;11.68;10.63;;;4.40;99.90;;;;;;6033639;23;20216;-76
2022/04/05 04:47:07;;;;;;;10.35;9.45;;;4.40;99.90;;;;;;6029432;23;20231;-76
2022/04/05 04:49:34;;;;;;;11.50;10.50;;;4.40;99.90;;;;;;6030799;23;20190;-76
2022/04/05 04:52:02;;;;;;;11.20;10.30;;;4.50;99.90;;;;;;6029128;23;20646;-77
2022/04/05 04:54:29;;;;;;;13.10;11.90;;;4.50;99.90;;;;;;6033488;23;20791;-77
2022/04/05 04:56:56;;;;;;;14.70;13.20;;;4.60;99.90;;;;;;6015180;23;20186;-77
2022/04/05 04:59:23;;;;;;;14.50;13.10;;;4.70;99.90;;;;;;6032807;23;20347;-78
2022/04/05 05:01:50;;;;;;;13.57;12.27;;;4.80;99.90;;;;;;6027921;23;20260;-77
2022/04/05 05:04:17;;;;;;;14.75;12.90;;;4.90;99.90;;;;;;6026832;23;20283;-77
2022/04/05 05:06:44;;;;;;;14.00;12.48;;;4.90;99.90;;;;;;6018788;23;20565;-77
2022/04/05 05:09:12;;;;;;;14.43;13.02;;;4.90;99.90;;;;;;6017718;23;20550;-77
2022/04/05 05:11:39;;;;;;;13.10;11.88;;;5.00;99.90;;;;;;6012918;23;20215;-77
2022/04/05 05:14:06;;;;;;;14.63;13.32;;;5.00;99.90;;;;;;6030669;23;20277;-77
2022/04/05 05:16:34;;;;;;;11.98;10.85;;;5.00;99.90;;;;;;6030594;23;20196;-76
2022/04/05 05:19:01;;;;;;;12.70;11.60;;;5.10;99.90;;;;;;6021471;23;20622;-77
2022/04/05 05:21:28;;;;;;;13.02;11.73;;;5.10;99.90;;;;;;6025368;23;20221;-77
2022/04/05 05:23:55;;;;;;;13.27;11.98;;;5.20;99.90;;;;;;6013116;23;20296;-79
2022/04/05 05:26:24;;;;;;;13.73;12.43;;;5.20;99.90;;;;;;6020967;23;20197;-77
2022/04/05 05:28:51;;;;;;;14.85;13.45;;;5.20;99.90;;;;;;6028489;23;20240;-77
2022/04/05 05:31:18;;;;;;;14.23;12.77;;;5.10;99.90;;;;;;6009417;23;20197;-77
2022/04/05 05:33:45;;;;;;;12.88;11.68;;;5.10;99.90;;;;;;6026938;23;20209;-77
2022/04/05 05:36:12;;;;;;;13.18;11.98;;;5.10;99.90;;;;;;6023292;23;20586;-77
2022/04/05 05:38:39;;;;;;;13.48;12.27;;;5.10;99.90;;;;;;6029746;23;20261;-77
2022/04/05 05:41:06;;;;;;;14.10;12.38;;;5.00;99.90;;;;;;6029305;23;20188;-77
2022/04/05 05:43:34;;;;;;;13.50;12.15;;;5.00;99.90;;;;;;6028976;23;20240;-77
2022/04/05 05:46:03;;;;;;;13.65;12.38;;;5.00;99.90;;;;;;6031635;23;20193;-78
2022/04/05 05:48:30;;;;;;;14.07;12.88;;;4.90;99.90;;;;;;6030219;23;20212;-78
2022/04/05 05:50:58;;;;;;;14.70;13.25;;;5.00;99.90;;;;;;6018283;23;21008;-78
2022/04/05 05:53:25;;;;;;;14.75;13.45;;;5.00;99.90;;;;;;6031692;23;20213;-78
2022/04/05 05:55:52;;;;;;;15.15;13.57;;;5.10;99.90;;;;;;6031740;23;20200;-77
2022/04/05 05:58:19;;;;;;;14.80;13.40;;;5.10;99.90;;;;;;6029720;23;21906;-78
2022/04/05 06:00:47;;;;;;;15.50;14.00;;;5.10;99.90;;;;;;6032323;23;20213;-78
2022/04/05 06:03:14;;;;;;;15.68;13.88;;;5.10;99.90;;;;;;6029370;23;20804;-78
2022/04/05 06:05:43;;;;;;;15.82;14.32;;;5.10;99.90;;;;;;6031196;23;20606;-78
2022/04/05 06:08:10;;;;;;;16.45;14.75;;;5.10;99.90;;;;;;6029591;23;20205;-80
2022/04/05 06:10:37;;;;;;;17.67;16.00;;;5.10;99.90;;;;;;6031084;23;20185;-78
2022/04/05 06:13:04;;;;;;;15.45;13.95;;;5.00;99.90;;;;;;6024925;23;20320;-78
2022/04/05 06:15:33;;;;;;;16.98;15.23;;;5.00;99.90;;;;;;6025125;23;20185;-79
2022/04/05 06:18:01;;;;;;;16.40;14.90;;;4.90;99.90;;;;;;6017220;23;20220;-78
2022/04/05 06:20:29;;;;;;;15.98;14.30;;;4.90;99.90;;;;;;6006314;23;20756;-79
2022/04/05 06:22:58;;;;;;;14.95;13.55;;;4.90;99.90;;;;;;6018537;23;20209;-79
2022/04/05 06:25:28;;;;;;;15.68;14.05;;;4.90;99.90;;;;;;6004769;23;20189;-78
2022/04/05 06:27:55;;;;;;;13.43;12.23;;;4.80;99.90;;;;;;6021700;23;20192;-78
2022/04/05 06:30:22;;;;;;;13.93;12.52;;;4.80;99.90;;;;;;6008845;23;20634;-78
2022/04/05 06:32:50;;;;;;;13.70;12.48;;;4.70;99.90;;;;;;6032876;23;20205;-78
2022/04/05 06:35:19;;;;;;;14.05;12.45;;;4.70;99.90;;;;;;6025736;23;20669;-78
2022/04/05 06:37:46;;;;;;;13.60;12.40;;;4.60;99.90;;;;;;6032963;23;20200;-79
2022/04/05 06:40:16;;;;;;;13.52;12.02;;;4.60;99.90;;;;;;6026817;23;20264;-78
2022/04/05 06:42:44;;;;;;;12.35;11.35;;;4.60;99.90;;;;;;6014964;23;20205;-79
2022/04/05 06:45:13;;;;;;;12.38;11.18;;;4.50;99.90;;;;;;6019800;23;20260;-79
2022/04/05 06:47:40;;;;;;;12.45;11.25;;;4.50;99.90;;;;;;6023664;23;20193;-79
2022/04/05 06:50:09;;;;;;;12.30;11.05;;;4.50;99.90;;;;;;6020411;23;20183;-79
2022/04/05 06:52:39;;;;;;;13.13;11.55;;;4.50;99.90;;;;;;6033280;23;20195;-79
2022/04/05 06:55:08;;;;;;;12.73;11.52;;;4.50;99.90;;;;;;6021823;23;20568;-80
2022/04/05 06:57:36;;;;;;;13.27;11.90;;;4.60;99.90;;;;;;6015503;23;20687;-79
2022/04/05 07:00:05;;;;;;;13.02;11.93;;;4.60;99.90;;;;;;6032605;23;20238;-79
2022/04/05 07:02:32;;;;;;;12.90;11.70;;;4.60;99.90;;;;;;6032595;23;20197;-79
2022/04/05 07:04:59;;;;;;;13.02;11.77;;;4.60;99.90;;;;;;6031822;23;20193;-79
2022/04/05 07:07:26;;;;;;;13.02;11.73;;;4.60;99.90;;;;;;6029724;23;20189;-79
2022/04/05 07:09:54;;;;;;;15.07;12.40;;;4.70;99.90;;;;;;6025224;23;20189;-79
2022/04/05 07:12:23;;;;;;;14.10;12.80;;;4.80;99.90;;;;;;6033436;23;20290;-79
2022/04/05 07:14:51;;;;;;;13.13;10.88;;;4.80;99.90;;;;;;6047087;23;20210;-79
2022/04/05 07:17:18;;;;;;;12.70;11.50;;;4.80;99.90;;;;;;6033253;23;20192;-79
2022/04/05 07:19:45;;;;;;;13.00;11.80;;;4.80;99.90;;;;;;6029757;23;20217;-79
2022/04/05 07:22:12;;;;;;;12.88;11.77;;;4.90;99.90;;;;;;6032953;23;20197;-79
2022/04/05 07:24:39;;;;;;;13.23;12.02;;;4.90;99.90;;;;;;6032634;23;20212;-79
2022/04/05 07:27:11;;;;;;;11.70;10.65;;;5.00;99.90;;;;;;6031711;23;20269;-79
2022/04/05 07:29:38;;;;;;;11.65;10.52;;;5.00;99.90;;;;;;6016704;23;20399;-80
2022/04/05 07:32:06;;;;;;;12.38;11.18;;;5.10;99.90;;;;;;6032933;23;20189;-79
2022/04/05 07:34:33;;;;;;;11.65;10.50;;;5.00;99.90;;;;;;6028876;23;20228;-79
2022/04/05 07:37:00;;;;;;;11.82;10.82;;;5.00;99.90;;;;;;6026332;23;20205;-80
2022/04/05 07:39:27;;;;;;;11.27;10.27;;;5.00;99.90;;;;;;6011303;23;20190;-79
2022/04/05 07:41:54;;;;;;;12.25;11.20;;;5.00;99.90;;;;;;6028348;23;20271;-80
2022/04/05 07:44:23;;;;;;;11.52;10.57;;;5.00;99.90;;;;;;6028022;23;20217;-80
2022/04/05 07:46:49;;;;;;;12.20;10.82;;;5.10;99.90;;;;;;6030784;23;20587;-79
2022/04/05 07:49:17;;;;;;;11.27;10.25;;;5.10;99.90;;;;;;6031675;23;20192;-80
2022/04/05 07:51:44;;;;;;;11.45;10.05;;;5.20;99.90;;;;;;6022618;23;20190;-80
2022/04/05 07:54:11;;;;;;;11.07;10.10;;;5.20;99.90;;;;;;6036415;23;20221;-80
2022/04/05 07:56:38;;;;;;;10.18;9.38;;;5.20;99.90;;;;;;6027338;23;20259;-81
2022/04/05 07:59:05;;;;;;;11.05;9.98;;;5.20;99.90;;;;;;6014823;23;20183;-81
2022/04/05 08:01:33;;;;;;;10.65;9.65;;;5.20;99.90;;;;;;6022653;23;20265;-81
2022/04/05 08:04:00;;;;;;;10.75;9.85;;;5.30;99.90;;;;;;6015391;23;20267;-79
2022/04/05 08:06:28;;;;;;;10.75;9.85;;;5.30;99.90;;;;;;6030030;23;20201;-79
2022/04/05 08:08:56;;;;;;;12.20;9.60;;;5.40;99.90;;;;;;6025737;23;20191;-81
2022/04/05 08:11:23;;;;;;;10.55;9.55;;;5.40;99.90;;;;;;6030945;23;20185;-79
2022/04/05 08:13:50;;;;;;;11.02;9.60;;;5.50;99.90;;;;;;6032716;23;20209;-81
2022/04/05 08:16:17;;;;;;;10.98;9.95;;;5.50;99.90;;;;;;6031083;23;20265;-80
2022/04/05 08:18:45;;;;;;;10.85;9.85;;;5.50;99.90;;;;;;6027047;23;20269;-79
2022/04/05 08:21:12;;;;;;;10.32;9.43;;;5.60;99.90;;;;;;6017005;23;20185;-78
2022/04/05 08:23:39;;;;;;;9.90;9.00;;;5.70;99.90;;;;;;6032596;23;20209;-79
2022/04/05 08:26:06;;;;;;;8.40;7.70;;;5.70;99.90;;;;;;6019308;23;20268;-79
2022/04/05 08:28:33;;;;;;;9.02;8.05;;;5.70;99.90;;;;;;6029250;23;20582;-78
2022/04/05 08:31:00;;;;;;;9.00;8.20;;;5.70;99.90;;;;;;6020073;23;20213;-80
2022/04/05 08:33:27;;;;;;;8.60;7.90;;;5.80;99.90;;;;;;6030126;23;20205;-79
2022/04/05 08:35:56;;;;;;;9.13;8.35;;;5.80;99.90;;;;;;6021535;23;20237;-79
2022/04/05 08:38:25;;;;;;;9.55;8.65;;;5.90;99.90;;;;;;6015797;23;20650;-79
2022/04/05 08:40:53;;;;;;;9.60;8.70;;;6.00;99.90;;;;;;6026200;23;20556;-79
2022/04/05 08:43:20;;;;;;;9.43;8.57;;;6.10;99.90;;;;;;6012280;23;20237;-79
2022/04/05 08:45:54;;;;;;;9.20;8.35;;;6.30;99.90;;;;;;6024444;23;20630;-79
2022/04/05 08:48:26;;;;;;;10.13;9.13;;;6.40;99.90;;;;;;6033241;23;20219;-79
2022/04/05 08:50:53;;;;;;;10.55;9.65;;;6.60;99.90;;;;;;6019171;23;20190;-79
2022/04/05 08:53:22;;;;;;;9.10;8.30;;;6.70;99.90;;;;;;6018188;23;20284;-79
2022/04/05 08:55:51;;;;;;;10.00;9.00;;;6.80;99.90;;;;;;6030896;23;20221;-78
2022/04/05 08:58:18;;;;;;;8.88;7.97;;;6.80;99.90;;;;;;6026115;23;20256;-79
2022/04/05 09:00:44;;;;;;;9.02;8.23;;;6.90;99.90;;;;;;6031006;23;20666;-79
2022/04/05 09:03:12;;;;;;;9.32;8.52;;;7.00;99.90;;;;;;6027422;23;20224;-78
2022/04/05 09:05:40;;;;;;;9.02;8.20;;;7.10;99.90;;;;;;6031179;23;20252;-79
2022/04/05 09:08:17;;;;;;;11.70;10.55;;;7.30;99.90;;;;;;6032792;23;20192;-79
2022/04/05 09:10:47;;;;;;;10.68;9.70;;;7.50;99.90;;;;;;6027692;23;20212;-79
2022/04/05 09:13:18;;;;;;;9.48;8.48;;;7.70;99.90;;;;;;6028052;23;20224;-79
2022/04/05 09:15:50;;;;;;;8.73;8.02;;;7.90;99.90;;;;;;6008295;23;20213;-79
2022/04/05 09:18:34;;;;;;;7.93;7.28;;;8.00;99.90;;;;;;6018650;23;20278;-79
2022/04/05 09:21:02;;;;;;;8.73;7.93;;;8.20;99.90;;;;;;6028075;23;20542;-79
2022/04/05 09:23:31;;;;;;;7.82;7.13;;;8.20;99.90;;;;;;6020657;23;20213;-79
2022/04/05 09:26:02;;;;;;;8.10;7.30;;;8.20;99.90;;;;;;6030560;23;20574;-83
2022/04/05 09:28:32;;;;;;;7.53;7.00;;;8.20;99.90;;;;;;6024625;23;20193;-79
2022/04/05 09:31:02;;;;;;;9.18;7.20;;;8.20;99.90;;;;;;6012487;23;20194;-79
2022/04/05 09:33:31;;;;;;;8.73;7.75;;;8.20;99.90;;;;;;6027964;23;20218;-80
2022/04/05 09:36:13;;;;;;;7.00;6.40;;;8.30;99.90;;;;;;6016333;23;20660;-80
2022/04/05 09:38:43;;;;;;;8.32;6.10;;;8.20;99.90;;;;;;6038488;23;20280;-80
2022/04/05 09:41:26;;;;;;;7.22;6.53;;;8.20;99.90;;;;;;6041001;23;20216;-80
2022/04/05 09:43:58;;;;;;;7.35;6.65;;;8.20;99.90;;;;;;6002554;23;20716;-80
2022/04/05 09:46:26;;;;;;;7.50;6.15;;;8.10;99.90;;;;;;6004470;23;20285;-80
2022/04/05 09:49:04;;;;;;;7.07;6.35;;;7.90;99.90;;;;;;6005621;23;20594;-80
2022/04/05 09:51:36;;;;;;;6.60;6.00;;;7.80;99.90;;;;;;6028680;23;20275;-80
2022/04/05 09:54:03;;;;;;;5.95;5.43;;;7.70;99.90;;;;;;6035882;23;20220;-80
2022/04/05 09:56:33;;;;;;;7.10;6.40;;;7.60;99.90;;;;;;6032709;23;20256;-80
2022/04/05 09:59:04;;;;;;;7.63;6.88;;;7.60;99.90;;;;;;6033833;23;20268;-80
2022/04/05 10:01:33;;;;;;;8.07;7.28;;;7.70;99.90;;;;;;6032511;23;20256;-80
2022/04/05 10:04:03;;;;;;;7.22;6.63;;;7.80;99.90;;;;;;6030224;23;20224;-80
2022/04/05 10:06:31;;;;;;;6.90;6.20;;;7.90;99.90;;;;;;6032381;23;20231;-79
2022/04/05 10:08:59;;;;;;;6.78;6.15;;;7.80;99.90;;;;;;6033192;23;20641;-80
2022/04/05 10:11:27;;;;;;;7.03;6.43;;;7.80;99.90;;;;;;6019012;23;20519;-81
2022/04/05 10:13:57;;;;;;;6.72;6.05;;;7.80;99.90;;;;;;6010723;23;20611;-80
2022/04/05 10:16:26;;;;;;;6.68;6.10;;;7.80;99.90;;;;;;6021562;23;20612;-81
2022/04/05 10:18:56;;;;;;;6.43;5.82;;;7.80;99.90;;;;;;6025808;23;20193;-80
2022/04/05 10:21:26;;;;;;;7.50;6.85;;;7.80;99.90;;;;;;6020781;23;20225;-77
2022/04/05 10:23:55;;;;;;;7.18;6.47;;;7.80;99.90;;;;;;6026762;23;20225;-78
2022/04/05 10:26:24;;;;;;;7.57;6.90;;;7.90;99.90;;;;;;6028386;23;20272;-77
2022/04/05 10:28:53;;;;;;;7.35;6.65;;;7.80;99.90;;;;;;6028387;23;20664;-76
2022/04/05 10:31:27;;;;;;;7.85;7.15;;;7.80;99.90;;;;;;6031886;23;20264;-76
2022/04/05 10:34:03;;;;;;;7.55;5.70;;;7.90;99.90;;;;;;6021874;23;20196;-76
2022/04/05 10:36:31;;;;;;;7.93;6.05;;;7.80;99.90;;;;;;6022068;23;20573;-76
2022/04/05 10:39:16;;;;;;;6.47;5.15;;;7.90;99.90;;;;;;6015674;23;20252;-76
2022/04/05 10:41:44;;;;;;;5.75;4.80;;;7.80;99.90;;;;;;6013382;23;20668;-77
2022/04/05 10:44:23;;;;;;;4.80;4.40;;;7.90;99.90;;;;;;6031046;23;20648;-76
2022/04/05 10:46:54;;;;;;;5.15;4.65;;;7.80;99.90;;;;;;6026455;23;20236;-78
2022/04/05 10:49:35;;;;;;;5.22;4.72;;;7.80;99.90;;;;;;6041505;23;20189;-81
2022/04/05 10:52:07;;;;;;;5.40;4.90;;;7.80;99.90;;;;;;6029198;23;20305;-81
2022/04/05 10:54:39;;;;;;;5.38;4.85;;;7.80;99.90;;;;;;6032201;23;20902;-80
2022/04/05 10:57:26;;;;;;;5.18;4.70;;;7.80;99.90;;;;;;6025592;23;20181;-81
2022/04/05 10:59:58;;;;;;;4.72;4.32;;;7.80;99.90;;;;;;6008016;23;20213;-81
2022/04/05 11:02:36;;;;;;;5.05;4.60;;;7.80;99.90;;;;;;6019134;23;20209;-81
2022/04/05 11:05:31;;;;;;;5.07;4.68;;;7.80;99.90;;;;;;6022582;23;20188;-82
2022/04/05 11:08:03;;;;;;;5.82;5.32;;;7.80;99.90;;;;;;6026090;23;20361;-81
2022/04/05 11:10:31;;;;;;;4.78;4.30;;;7.90;99.90;;;;;;6021135;23;20244;-80
2022/04/05 11:13:05;;;;;;;5.32;4.90;;;7.90;99.90;;;;;;6027699;23;20819;-81
2022/04/05 11:15:40;;;;;;;4.75;4.45;;;8.00;99.90;;;;;;6030552;23;20633;-82
2022/04/05 11:18:09;;;;;;;4.95;4.40;;;8.00;99.90;;;;;;6024933;23;20212;-81
2022/04/05 11:20:39;;;;;;;5.00;4.60;;;8.00;99.90;;;;;;6015964;23;20186;-80
2022/04/05 11:23:06;;;;;;;5.10;4.60;;;8.10;99.90;;;;;;6027397;23;20201;-81
2022/04/05 11:25:33;;;;;;;7.15;5.30;;;8.00;99.90;;;;;;6005463;23;20182;-82
2022/04/05 11:28:11;;;;;;;5.30;4.85;;;8.10;99.90;;;;;;6013873;23;20660;-82
2022/04/05 11:30:45;;;;;;;5.20;4.80;;;8.20;99.90;;;;;;6027352;23;20265;-82
2022/04/05 11:33:19;;;;;;;5.50;4.90;;;8.20;99.90;;;;;;6030841;23;20664;-81
2022/04/05 11:35:48;;;;;;;4.95;4.55;;;8.20;99.90;;;;;;6029864;23;20301;-81
2022/04/05 11:38:28;;;;;;;5.88;5.38;;;8.20;99.90;;;;;;6032292;23;20251;-81
2022/04/05 11:40:58;;;;;;;5.55;4.95;;;8.20;99.90;;;;;;6026977;23;20185;-81
2022/04/05 11:43:27;;;;;;;5.25;4.75;;;8.30;99.90;;;;;;6018073;23;20207;-81
2022/04/05 11:45:56;;;;;;;5.05;4.65;;;8.30;99.90;;;;;;6030110;23;20190;-82
2022/04/05 11:48:27;;;;;;;5.40;4.72;;;8.40;99.90;;;;;;6020864;23;20270;-81
2022/04/05 11:50:56;;;;;;;4.72;4.32;;;8.40;99.90;;;;;;6032007;23;20182;-81
2022/04/05 11:53:25;;;;;;;4.55;4.15;;;8.50;99.90;;;;;;6021127;23;20216;-83
2022/04/05 11:56:12;;;;;;;5.22;4.75;;;8.40;99.90;;;;;;6031817;23;20224;-82
2022/04/05 11:58:41;;;;;;;5.57;4.97;;;8.50;99.90;;;;;;6030679;23;20221;-82
2022/04/05 12:01:10;;;;;;;5.72;5.10;;;8.50;99.90;;;;;;6029970;23;20535;-82
2022/04/05 12:03:50;;;;;;;5.22;4.75;;;8.70;99.90;;;;;;6029525;23;20282;-82
2022/04/05 12:06:21;;;;;;;5.35;4.95;;;8.80;99.90;;;;;;6032965;23;20315;-82
2022/04/05 12:08:50;;;;;;;4.68;4.38;;;9.00;99.90;;;;;;6030594;23;20199;-82
2022/04/05 12:11:18;;;;;;;5.20;4.80;;;8.90;99.90;;;;;;6018954;23;20252;-82
2022/04/05 12:13:57;;;;;;;4.85;4.45;;;8.90;99.90;;;;;;6022467;23;20237;-82
2022/04/05 12:16:25;;;;;;;4.90;4.40;;;9.00;99.90;;;;;;6021288;23;20285;-82
2022/04/05 12:18:54;;;;;;;4.85;4.45;;;8.90;99.90;;;;;;6027208;23;20195;-82
2022/04/05 12:21:24;;;;;;;5.93;5.43;;;8.90;99.90;;;;;;6021494;23;20193;-82
2022/04/05 12:23:52;;;;;;;5.65;5.20;;;9.00;99.90;;;;;;6014590;23;20226;-81
2022/04/05 12:26:23;;;;;;;6.03;4.88;;;9.00;99.90;;;;;;6021428;23;20265;-81
2022/04/05 12:28:53;;;;;;;5.75;5.10;;;9.10;99.90;;;;;;6015800;23;20640;-82
2022/04/05 12:31:22;;;;;;;5.38;4.90;;;9.20;99.90;;;;;;6027602;23;20341;-82
2022/04/05 12:34:05;;;;;;;5.22;4.82;;;9.50;99.90;;;;;;6027395;23;20262;-82
2022/04/05 12:36:34;;;;;;;5.68;4.80;;;9.50;99.90;;;;;;6027302;23;20298;-82
2022/04/05 12:39:02;;;;;;;5.40;5.00;;;9.60;99.90;;;;;;6027027;23;20566;-82
2022/04/05 12:41:29;;;;;;;6.70;5.10;;;9.60;99.90;;;;;;6031226;23;20294;-85
2022/04/05 12:44:10;;;;;;;4.97;4.57;;;9.70;99.90;;;;;;6028199;23;20225;-82
2022/04/05 12:46:40;;;;;;;5.47;4.97;;;9.80;99.90;;;;;;6010228;23;20659;-83
2022/04/05 12:49:30;;;;;;;5.38;4.60;;;10.00;99.90;;;;;;6018907;23;20359;-82
2022/04/05 12:52:08;;;;;;;4.75;4.38;;;10.10;99.90;;;;;;6020630;23;20699;-83
2022/04/05 12:54:37;;;;;;;5.38;4.88;;;10.30;99.90;;;;;;6026344;23;20213;-82
2022/04/05 12:57:35;;;;;;;5.00;4.60;;;10.30;99.90;;;;;;6025004;23;21735;-83
2022/04/05 13:00:13;;;;;;;5.50;5.00;;;10.30;99.90;;;;;;6020585;23;20267;-83